sensor_id;sensor_type;location;lat;lon;timestamp;temperature;humidity
9699;DHT22;10089;47.876;8.346;2022-07-06T00:01:42;15.20;99.90
9699;DHT22;10089;47.876;8.346;2022-07-06T00:04:08;15.20;99.90
9699;DHT22;10089;47.876;8.346;2022-07-06T00:06:33;15.10;99.90
9699;DHT22;10089;47.876;8.346;2022-07-06T00:08:59;15.10;99.90
9699;DHT22;10089;47.876;8.346;2022-07-06T00:11:24;15.00;99.90
9699;DHT22;10089;47.876;8.346;2022-07-06T00:13:50;14.90;99.90
9699;DHT22;10089;47.876;8.346;2022-07-06T00:16:16;14.90;99.90
9699;DHT22;10089;47.876;8.346;2022-07-06T00:18:41;14.90;99.90
9699;DHT22;10089;47.876;8.346;2022-07-06T00:21:07;14.80;99.90
9699;DHT22;10089;47.876;8.346;2022-07-06T00:23:32;14.80;99.90
9699;DHT22;10089;47.876;8.346;2022-07-06T00:25:58;14.70;99.90
9699;DHT22;10089;47.876;8.346;2022-07-06T00:28:23;14.70;99.90
9699;DHT22;10089;47.876;8.346;2022-07-06T00:30:49;14.60;99.90
9699;DHT22;10089;47.876;8.346;2022-07-06T00:33:15;14.60;99.90
9699;DHT22;10089;47.876;8.346;2022-07-06T00:35:40;14.50;99.90
9699;DHT22;10089;47.876;8.346;2022-07-06T00:38:06;14.40;99.90
9699;DHT22;10089;47.876;8.346;2022-07-06T00:40:31;14.50;99.90
9699;DHT22;10089;47.876;8.346;2022-07-06T00:42:57;14.40;99.90
9699;DHT22;10089;47.876;8.346;2022-07-06T00:45:23;14.40;99.90
9699;DHT22;10089;47.876;8.346;2022-07-06T00:47:48;14.40;99.90
9699;DHT22;10089;47.876;8.346;2022-07-06T00:50:15;14.40;99.90
9699;DHT22;10089;47.876;8.346;2022-07-06T00:52:44;14.40;99.90
9699;DHT22;10089;47.876;8.346;2022-07-06T00:55:10;14.50;99.90
9699;DHT22;10089;47.876;8.346;2022-07-06T00:57:36;14.50;99.90
9699;DHT22;10089;47.876;8.346;2022-07-06T01:00:03;14.40;99.90
9699;DHT22;10089;47.876;8.346;2022-07-06T01:02:32;14.50;99.90
9699;DHT22;10089;47.876;8.346;2022-07-06T01:04:58;14.40;99.90
9699;DHT22;10089;47.876;8.346;2022-07-06T01:07:23;14.40;99.90
9699;DHT22;10089;47.876;8.346;2022-07-06T01:09:49;14.30;99.90
9699;DHT22;10089;47.876;8.346;2022-07-06T01:12:15;14.30;99.90
9699;DHT22;10089;47.876;8.346;2022-07-06T01:14:41;14.30;99.90
9699;DHT22;10089;47.876;8.346;2022-07-06T01:17:07;14.30;99.90
9699;DHT22;10089;47.876;8.346;2022-07-06T01:19:32;14.40;99.90
9699;DHT22;10089;47.876;8.346;2022-07-06T01:21:58;14.30;99.90
9699;DHT22;10089;47.876;8.346;2022-07-06T01:24:23;14.20;99.90
9699;DHT22;10089;47.876;8.346;2022-07-06T01:26:49;14.10;99.90
9699;DHT22;10089;47.876;8.346;2022-07-06T01:29:15;14.10;99.90
9699;DHT22;10089;47.876;8.346;2022-07-06T01:31:47;14.10;99.90
9699;DHT22;10089;47.876;8.346;2022-07-06T01:34:14;14.10;99.90
9699;DHT22;10089;47.876;8.346;2022-07-06T01:36:40;14.30;99.90
9699;DHT22;10089;47.876;8.346;2022-07-06T01:39:07;14.20;99.90
9699;DHT22;10089;47.876;8.346;2022-07-06T01:41:33;14.50;99.90
9699;DHT22;10089;47.876;8.346;2022-07-06T01:43:58;14.20;99.90
9699;DHT22;10089;47.876;8.346;2022-07-06T01:46:24;14.20;99.90
9699;DHT22;10089;47.876;8.346;2022-07-06T01:48:50;14.20;99.90
9699;DHT22;10089;47.876;8.346;2022-07-06T01:51:15;14.20;99.90
9699;DHT22;10089;47.876;8.346;2022-07-06T01:53:41;14.20;99.90
9699;DHT22;10089;47.876;8.346;2022-07-06T01:56:07;14.20;99.90
9699;DHT22;10089;47.876;8.346;2022-07-06T01:58:32;14.10;99.90
9699;DHT22;10089;47.876;8.346;2022-07-06T02:00:58;14.10;99.90
9699;DHT22;10089;47.876;8.346;2022-07-06T02:03:24;13.90;99.90
9699;DHT22;10089;47.876;8.346;2022-07-06T02:05:49;14.00;99.90
9699;DHT22;10089;47.876;8.346;2022-07-06T02:08:15;14.00;99.90
9699;DHT22;10089;47.876;8.346;2022-07-06T02:10:41;13.90;99.90
9699;DHT22;10089;47.876;8.346;2022-07-06T02:13:06;13.90;99.90
9699;DHT22;10089;47.876;8.346;2022-07-06T02:15:32;13.80;99.90
9699;DHT22;10089;47.876;8.346;2022-07-06T02:17:58;13.90;99.90
9699;DHT22;10089;47.876;8.346;2022-07-06T02:20:23;13.80;99.90
9699;DHT22;10089;47.876;8.346;2022-07-06T02:22:49;13.80;99.90
9699;DHT22;10089;47.876;8.346;2022-07-06T02:25:15;13.80;99.90
9699;DHT22;10089;47.876;8.346;2022-07-06T02:27:41;13.80;99.90
9699;DHT22;10089;47.876;8.346;2022-07-06T02:30:07;13.70;99.90
9699;DHT22;10089;47.876;8.346;2022-07-06T02:32:32;13.60;99.90
9699;DHT22;10089;47.876;8.346;2022-07-06T02:34:58;13.60;99.90
9699;DHT22;10089;47.876;8.346;2022-07-06T02:37:24;13.60;99.90
9699;DHT22;10089;47.876;8.346;2022-07-06T02:39:50;13.60;99.90
9699;DHT22;10089;47.876;8.346;2022-07-06T02:42:15;13.60;99.90
9699;DHT22;10089;47.876;8.346;2022-07-06T02:44:41;13.60;99.90
9699;DHT22;10089;47.876;8.346;2022-07-06T02:47:06;13.50;99.90
9699;DHT22;10089;47.876;8.346;2022-07-06T02:49:32;13.50;99.90
9699;DHT22;10089;47.876;8.346;2022-07-06T02:51:58;13.50;99.90
9699;DHT22;10089;47.876;8.346;2022-07-06T02:54:23;13.40;99.90
9699;DHT22;10089;47.876;8.346;2022-07-06T02:56:49;13.40;99.90
9699;DHT22;10089;47.876;8.346;2022-07-06T02:59:18;13.50;99.90
9699;DHT22;10089;47.876;8.346;2022-07-06T03:01:44;13.40;99.90
9699;DHT22;10089;47.876;8.346;2022-07-06T03:04:09;13.30;99.90
9699;DHT22;10089;47.876;8.346;2022-07-06T03:06:35;13.30;99.90
9699;DHT22;10089;47.876;8.346;2022-07-06T03:09:01;13.20;99.90
9699;DHT22;10089;47.876;8.346;2022-07-06T03:11:27;13.20;99.90
9699;DHT22;10089;47.876;8.346;2022-07-06T03:13:52;13.20;99.90
9699;DHT22;10089;47.876;8.346;2022-07-06T03:16:18;13.00;99.90
9699;DHT22;10089;47.876;8.346;2022-07-06T03:18:43;13.10;99.90
9699;DHT22;10089;47.876;8.346;2022-07-06T03:21:09;13.10;99.90
9699;DHT22;10089;47.876;8.346;2022-07-06T03:23:35;13.10;99.90
9699;DHT22;10089;47.876;8.346;2022-07-06T03:26:00;13.10;99.90
9699;DHT22;10089;47.876;8.346;2022-07-06T03:28:26;13.20;99.90
9699;DHT22;10089;47.876;8.346;2022-07-06T03:30:52;13.20;99.90
9699;DHT22;10089;47.876;8.346;2022-07-06T03:33:17;13.10;99.90
9699;DHT22;10089;47.876;8.346;2022-07-06T03:35:43;13.00;99.90
9699;DHT22;10089;47.876;8.346;2022-07-06T03:38:09;12.90;99.90
9699;DHT22;10089;47.876;8.346;2022-07-06T03:40:34;12.90;99.90
9699;DHT22;10089;47.876;8.346;2022-07-06T03:43:00;12.80;99.90
9699;DHT22;10089;47.876;8.346;2022-07-06T03:45:25;12.90;99.90
9699;DHT22;10089;47.876;8.346;2022-07-06T03:47:51;12.90;99.90
9699;DHT22;10089;47.876;8.346;2022-07-06T03:50:17;12.90;99.90
9699;DHT22;10089;47.876;8.346;2022-07-06T03:52:42;12.90;99.90
9699;DHT22;10089;47.876;8.346;2022-07-06T03:55:09;12.90;99.90
9699;DHT22;10089;47.876;8.346;2022-07-06T03:57:35;12.90;99.90
9699;DHT22;10089;47.876;8.346;2022-07-06T04:00:01;12.90;99.90
9699;DHT22;10089;47.876;8.346;2022-07-06T04:02:26;12.80;99.90
9699;DHT22;10089;47.876;8.346;2022-07-06T04:04:52;12.90;99.90
9699;DHT22;10089;47.876;8.346;2022-07-06T04:07:18;12.80;99.90
9699;DHT22;10089;47.876;8.346;2022-07-06T04:09:43;12.70;99.90
9699;DHT22;10089;47.876;8.346;2022-07-06T04:12:09;12.70;99.90
9699;DHT22;10089;47.876;8.346;2022-07-06T04:14:34;12.70;99.90
9699;DHT22;10089;47.876;8.346;2022-07-06T04:17:00;12.80;99.90
9699;DHT22;10089;47.876;8.346;2022-07-06T04:19:46;12.80;99.90
9699;DHT22;10089;47.876;8.346;2022-07-06T04:22:12;12.90;99.90
9699;DHT22;10089;47.876;8.346;2022-07-06T04:24:37;12.90;99.90
9699;DHT22;10089;47.876;8.346;2022-07-06T04:27:03;13.00;99.90
9699;DHT22;10089;47.876;8.346;2022-07-06T04:29:28;13.00;99.90
9699;DHT22;10089;47.876;8.346;2022-07-06T04:31:54;13.10;99.90
9699;DHT22;10089;47.876;8.346;2022-07-06T04:34:20;13.10;99.90
9699;DHT22;10089;47.876;8.346;2022-07-06T04:36:46;13.20;99.90
9699;DHT22;10089;47.876;8.346;2022-07-06T04:39:11;13.20;99.90
9699;DHT22;10089;47.876;8.346;2022-07-06T04:41:37;13.20;99.90
9699;DHT22;10089;47.876;8.346;2022-07-06T04:44:03;13.30;99.90
9699;DHT22;10089;47.876;8.346;2022-07-06T04:46:29;13.30;99.90
9699;DHT22;10089;47.876;8.346;2022-07-06T04:48:54;13.40;99.90
9699;DHT22;10089;47.876;8.346;2022-07-06T04:51:20;13.50;99.90
9699;DHT22;10089;47.876;8.346;2022-07-06T04:53:45;13.60;99.90
9699;DHT22;10089;47.876;8.346;2022-07-06T04:56:12;13.70;99.90
9699;DHT22;10089;47.876;8.346;2022-07-06T04:58:37;13.80;99.90
9699;DHT22;10089;47.876;8.346;2022-07-06T05:01:03;14.00;99.90
9699;DHT22;10089;47.876;8.346;2022-07-06T05:03:28;14.20;99.90
9699;DHT22;10089;47.876;8.346;2022-07-06T05:05:54;14.60;99.90
9699;DHT22;10089;47.876;8.346;2022-07-06T05:08:20;15.00;99.90
9699;DHT22;10089;47.876;8.346;2022-07-06T05:10:45;15.10;99.90
9699;DHT22;10089;47.876;8.346;2022-07-06T05:13:11;15.10;99.90
9699;DHT22;10089;47.876;8.346;2022-07-06T05:15:37;15.10;99.90
9699;DHT22;10089;47.876;8.346;2022-07-06T05:18:02;15.20;99.90
9699;DHT22;10089;47.876;8.346;2022-07-06T05:20:28;15.40;99.90
9699;DHT22;10089;47.876;8.346;2022-07-06T05:22:54;15.50;99.90
9699;DHT22;10089;47.876;8.346;2022-07-06T05:25:19;16.10;99.90
9699;DHT22;10089;47.876;8.346;2022-07-06T05:27:45;16.50;99.90
9699;DHT22;10089;47.876;8.346;2022-07-06T05:30:11;17.10;99.90
9699;DHT22;10089;47.876;8.346;2022-07-06T05:32:36;17.70;99.90
9699;DHT22;10089;47.876;8.346;2022-07-06T05:35:02;18.00;99.90
9699;DHT22;10089;47.876;8.346;2022-07-06T05:37:28;18.40;99.90
9699;DHT22;10089;47.876;8.346;2022-07-06T05:39:53;18.70;99.90
9699;DHT22;10089;47.876;8.346;2022-07-06T05:42:19;18.70;99.90
9699;DHT22;10089;47.876;8.346;2022-07-06T05:44:45;19.00;99.90
9699;DHT22;10089;47.876;8.346;2022-07-06T05:47:10;19.00;99.90
9699;DHT22;10089;47.876;8.346;2022-07-06T05:49:54;19.10;99.90
9699;DHT22;10089;47.876;8.346;2022-07-06T05:52:43;19.20;99.90
9699;DHT22;10089;47.876;8.346;2022-07-06T05:55:11;19.30;99.90
9699;DHT22;10089;47.876;8.346;2022-07-06T05:57:37;19.30;99.90
9699;DHT22;10089;47.876;8.346;2022-07-06T06:00:03;19.70;99.90
9699;DHT22;10089;47.876;8.346;2022-07-06T06:02:36;20.00;99.90
9699;DHT22;10089;47.876;8.346;2022-07-06T06:05:03;19.00;99.90
9699;DHT22;10089;47.876;8.346;2022-07-06T06:07:28;19.60;99.90
9699;DHT22;10089;47.876;8.346;2022-07-06T06:09:55;19.90;99.90
9699;DHT22;10089;47.876;8.346;2022-07-06T06:12:21;19.80;99.90
9699;DHT22;10089;47.876;8.346;2022-07-06T06:14:46;19.90;99.90
9699;DHT22;10089;47.876;8.346;2022-07-06T06:17:12;20.10;99.90
9699;DHT22;10089;47.876;8.346;2022-07-06T06:19:59;20.40;99.90
9699;DHT22;10089;47.876;8.346;2022-07-06T06:22:28;21.70;99.90
9699;DHT22;10089;47.876;8.346;2022-07-06T06:24:56;20.10;99.90
9699;DHT22;10089;47.876;8.346;2022-07-06T06:27:22;20.10;99.90
9699;DHT22;10089;47.876;8.346;2022-07-06T06:29:48;20.40;99.90
9699;DHT22;10089;47.876;8.346;2022-07-06T06:32:13;20.90;99.90
9699;DHT22;10089;47.876;8.346;2022-07-06T06:34:39;21.30;99.90
9699;DHT22;10089;47.876;8.346;2022-07-06T06:37:05;21.30;99.90
9699;DHT22;10089;47.876;8.346;2022-07-06T06:39:31;21.20;99.90
9699;DHT22;10089;47.876;8.346;2022-07-06T06:41:57;21.40;99.90
9699;DHT22;10089;47.876;8.346;2022-07-06T06:44:23;21.80;99.90
9699;DHT22;10089;47.876;8.346;2022-07-06T06:46:49;21.90;99.90
9699;DHT22;10089;47.876;8.346;2022-07-06T06:49:15;22.10;99.90
9699;DHT22;10089;47.876;8.346;2022-07-06T06:51:41;22.40;99.90
9699;DHT22;10089;47.876;8.346;2022-07-06T06:54:06;22.40;99.90
9699;DHT22;10089;47.876;8.346;2022-07-06T06:56:32;22.40;99.90
9699;DHT22;10089;47.876;8.346;2022-07-06T06:58:57;22.40;99.90
9699;DHT22;10089;47.876;8.346;2022-07-06T07:01:23;22.70;99.90
9699;DHT22;10089;47.876;8.346;2022-07-06T07:03:50;22.70;99.90
9699;DHT22;10089;47.876;8.346;2022-07-06T07:06:15;23.20;99.90
9699;DHT22;10089;47.876;8.346;2022-07-06T07:08:42;21.70;99.90
9699;DHT22;10089;47.876;8.346;2022-07-06T07:11:08;22.30;99.90
9699;DHT22;10089;47.876;8.346;2022-07-06T07:13:34;22.90;99.90
9699;DHT22;10089;47.876;8.346;2022-07-06T07:15:59;23.00;99.90
9699;DHT22;10089;47.876;8.346;2022-07-06T07:18:25;22.70;99.90
9699;DHT22;10089;47.876;8.346;2022-07-06T07:20:50;21.80;99.90
9699;DHT22;10089;47.876;8.346;2022-07-06T07:23:16;22.50;99.90
9699;DHT22;10089;47.876;8.346;2022-07-06T07:25:42;22.20;99.90
9699;DHT22;10089;47.876;8.346;2022-07-06T07:28:08;21.80;99.90
9699;DHT22;10089;47.876;8.346;2022-07-06T07:30:34;22.10;99.90
9699;DHT22;10089;47.876;8.346;2022-07-06T07:32:59;21.50;99.90
9699;DHT22;10089;47.876;8.346;2022-07-06T07:35:26;22.60;99.90
9699;DHT22;10089;47.876;8.346;2022-07-06T07:37:52;22.40;99.90
9699;DHT22;10089;47.876;8.346;2022-07-06T07:40:18;22.90;99.90
9699;DHT22;10089;47.876;8.346;2022-07-06T07:42:43;23.30;99.90
9699;DHT22;10089;47.876;8.346;2022-07-06T07:45:10;23.60;99.90
9699;DHT22;10089;47.876;8.346;2022-07-06T07:47:36;24.00;99.90
9699;DHT22;10089;47.876;8.346;2022-07-06T07:50:02;23.90;98.70
9699;DHT22;10089;47.876;8.346;2022-07-06T07:52:27;24.30;99.90
9699;DHT22;10089;47.876;8.346;2022-07-06T07:54:53;24.40;98.60
9699;DHT22;10089;47.876;8.346;2022-07-06T07:57:19;24.10;99.00
9699;DHT22;10089;47.876;8.346;2022-07-06T07:59:44;24.00;98.60
9699;DHT22;10089;47.876;8.346;2022-07-06T08:02:10;22.60;99.80
9699;DHT22;10089;47.876;8.346;2022-07-06T08:04:36;22.90;99.90
9699;DHT22;10089;47.876;8.346;2022-07-06T08:07:01;22.50;99.90
9699;DHT22;10089;47.876;8.346;2022-07-06T08:09:27;23.40;99.90
9699;DHT22;10089;47.876;8.346;2022-07-06T08:11:52;23.40;99.10
9699;DHT22;10089;47.876;8.346;2022-07-06T08:14:18;23.80;99.10
9699;DHT22;10089;47.876;8.346;2022-07-06T08:16:44;23.90;99.10
9699;DHT22;10089;47.876;8.346;2022-07-06T08:19:09;23.10;99.90
9699;DHT22;10089;47.876;8.346;2022-07-06T08:21:39;23.80;99.90
9699;DHT22;10089;47.876;8.346;2022-07-06T08:24:05;24.50;97.90
9699;DHT22;10089;47.876;8.346;2022-07-06T08:26:30;24.20;99.50
9699;DHT22;10089;47.876;8.346;2022-07-06T08:28:56;24.00;99.50
9699;DHT22;10089;47.876;8.346;2022-07-06T08:31:22;24.00;98.80
9699;DHT22;10089;47.876;8.346;2022-07-06T08:33:48;24.30;97.80
9699;DHT22;10089;47.876;8.346;2022-07-06T08:36:14;24.00;98.40
9699;DHT22;10089;47.876;8.346;2022-07-06T08:38:39;24.10;96.90
9699;DHT22;10089;47.876;8.346;2022-07-06T08:41:08;23.20;99.50
9699;DHT22;10089;47.876;8.346;2022-07-06T08:43:34;23.70;97.40
9699;DHT22;10089;47.876;8.346;2022-07-06T08:46:00;24.50;97.80
9699;DHT22;10089;47.876;8.346;2022-07-06T08:48:26;25.20;97.60
9699;DHT22;10089;47.876;8.346;2022-07-06T08:50:53;24.80;96.50
9699;DHT22;10089;47.876;8.346;2022-07-06T08:53:20;24.70;96.50
9699;DHT22;10089;47.876;8.346;2022-07-06T08:55:46;24.60;98.40
9699;DHT22;10089;47.876;8.346;2022-07-06T08:58:13;24.80;96.70
9699;DHT22;10089;47.876;8.346;2022-07-06T09:00:38;24.20;95.90
9699;DHT22;10089;47.876;8.346;2022-07-06T09:03:04;24.40;97.20
9699;DHT22;10089;47.876;8.346;2022-07-06T09:05:30;24.60;96.80
9699;DHT22;10089;47.876;8.346;2022-07-06T09:07:57;24.70;95.70
9699;DHT22;10089;47.876;8.346;2022-07-06T09:10:23;24.70;96.10
9699;DHT22;10089;47.876;8.346;2022-07-06T09:12:49;24.50;96.50
9699;DHT22;10089;47.876;8.346;2022-07-06T09:15:15;25.00;96.60
9699;DHT22;10089;47.876;8.346;2022-07-06T09:17:41;25.00;96.50
9699;DHT22;10089;47.876;8.346;2022-07-06T09:20:08;24.80;96.20
9699;DHT22;10089;47.876;8.346;2022-07-06T09:22:34;25.40;96.40
9699;DHT22;10089;47.876;8.346;2022-07-06T09:27:29;23.70;96.10
9699;DHT22;10089;47.876;8.346;2022-07-06T09:29:54;24.10;95.60
9699;DHT22;10089;47.876;8.346;2022-07-06T09:32:24;24.80;96.20
9699;DHT22;10089;47.876;8.346;2022-07-06T09:34:50;24.70;94.70
9699;DHT22;10089;47.876;8.346;2022-07-06T09:37:15;25.10;96.20
9699;DHT22;10089;47.876;8.346;2022-07-06T09:39:42;25.20;97.20
9699;DHT22;10089;47.876;8.346;2022-07-06T09:42:08;25.90;94.70
9699;DHT22;10089;47.876;8.346;2022-07-06T09:44:34;26.00;94.00
9699;DHT22;10089;47.876;8.346;2022-07-06T09:47:02;24.70;92.90
9699;DHT22;10089;47.876;8.346;2022-07-06T09:49:28;24.10;94.80
9699;DHT22;10089;47.876;8.346;2022-07-06T09:51:55;23.70;96.60
9699;DHT22;10089;47.876;8.346;2022-07-06T09:54:21;23.30;97.00
9699;DHT22;10089;47.876;8.346;2022-07-06T09:56:49;23.10;97.50
9699;DHT22;10089;47.876;8.346;2022-07-06T09:59:25;23.50;97.90
9699;DHT22;10089;47.876;8.346;2022-07-06T10:01:58;23.10;97.40
9699;DHT22;10089;47.876;8.346;2022-07-06T10:04:24;23.30;97.70
9699;DHT22;10089;47.876;8.346;2022-07-06T10:06:50;23.30;99.00
9699;DHT22;10089;47.876;8.346;2022-07-06T10:09:17;23.10;97.50
9699;DHT22;10089;47.876;8.346;2022-07-06T10:11:48;23.30;98.20
9699;DHT22;10089;47.876;8.346;2022-07-06T10:14:15;23.70;97.70
9699;DHT22;10089;47.876;8.346;2022-07-06T10:16:42;23.30;97.30
9699;DHT22;10089;47.876;8.346;2022-07-06T10:19:09;23.40;98.10
9699;DHT22;10089;47.876;8.346;2022-07-06T10:21:38;23.20;97.80
9699;DHT22;10089;47.876;8.346;2022-07-06T10:24:07;22.90;97.50
9699;DHT22;10089;47.876;8.346;2022-07-06T10:26:34;23.60;98.70
9699;DHT22;10089;47.876;8.346;2022-07-06T10:29:00;24.30;97.60
9699;DHT22;10089;47.876;8.346;2022-07-06T10:31:26;25.00;96.40
9699;DHT22;10089;47.876;8.346;2022-07-06T10:33:54;25.30;96.90
9699;DHT22;10089;47.876;8.346;2022-07-06T10:36:20;25.90;95.20
9699;DHT22;10089;47.876;8.346;2022-07-06T10:38:48;24.10;96.00
9699;DHT22;10089;47.876;8.346;2022-07-06T10:41:14;23.00;96.80
9699;DHT22;10089;47.876;8.346;2022-07-06T10:43:44;22.60;98.40
9699;DHT22;10089;47.876;8.346;2022-07-06T10:46:14;22.90;99.10
9699;DHT22;10089;47.876;8.346;2022-07-06T10:48:41;23.10;98.50
9699;DHT22;10089;47.876;8.346;2022-07-06T10:51:08;22.40;98.10
9699;DHT22;10089;47.876;8.346;2022-07-06T10:53:34;22.80;99.20
9699;DHT22;10089;47.876;8.346;2022-07-06T10:56:02;23.30;98.90
9699;DHT22;10089;47.876;8.346;2022-07-06T10:58:35;23.50;99.10
9699;DHT22;10089;47.876;8.346;2022-07-06T11:01:00;23.50;97.20
9699;DHT22;10089;47.876;8.346;2022-07-06T11:03:42;23.30;96.50
9699;DHT22;10089;47.876;8.346;2022-07-06T11:06:16;22.60;99.70
9699;DHT22;10089;47.876;8.346;2022-07-06T11:08:42;22.80;98.70
9699;DHT22;10089;47.876;8.346;2022-07-06T11:11:12;21.80;97.60
9699;DHT22;10089;47.876;8.346;2022-07-06T11:16:16;22.20;99.90
9699;DHT22;10089;47.876;8.346;2022-07-06T11:18:46;22.70;98.90
9699;DHT22;10089;47.876;8.346;2022-07-06T11:21:20;23.40;98.90
9699;DHT22;10089;47.876;8.346;2022-07-06T11:23:47;24.20;96.90
9699;DHT22;10089;47.876;8.346;2022-07-06T11:26:13;24.80;96.70
9699;DHT22;10089;47.876;8.346;2022-07-06T11:28:39;25.20;94.50
9699;DHT22;10089;47.876;8.346;2022-07-06T11:31:05;24.70;94.30
9699;DHT22;10089;47.876;8.346;2022-07-06T11:33:31;24.20;97.20
9699;DHT22;10089;47.876;8.346;2022-07-06T11:36:16;24.00;94.70
9699;DHT22;10089;47.876;8.346;2022-07-06T11:38:42;23.10;95.60
9699;DHT22;10089;47.876;8.346;2022-07-06T11:41:08;22.80;97.20
9699;DHT22;10089;47.876;8.346;2022-07-06T11:43:34;23.00;96.90
9699;DHT22;10089;47.876;8.346;2022-07-06T11:46:00;23.10;97.00
9699;DHT22;10089;47.876;8.346;2022-07-06T11:48:25;23.10;95.90
9699;DHT22;10089;47.876;8.346;2022-07-06T11:51:00;23.20;97.20
9699;DHT22;10089;47.876;8.346;2022-07-06T11:53:26;23.30;96.30
9699;DHT22;10089;47.876;8.346;2022-07-06T11:55:52;23.70;98.00
9699;DHT22;10089;47.876;8.346;2022-07-06T11:58:20;24.20;97.30
9699;DHT22;10089;47.876;8.346;2022-07-06T12:01:06;24.70;96.40
9699;DHT22;10089;47.876;8.346;2022-07-06T12:03:31;24.80;95.40
9699;DHT22;10089;47.876;8.346;2022-07-06T12:05:59;24.70;96.00
9699;DHT22;10089;47.876;8.346;2022-07-06T12:08:24;25.00;95.70
9699;DHT22;10089;47.876;8.346;2022-07-06T12:10:50;25.30;95.60
9699;DHT22;10089;47.876;8.346;2022-07-06T12:13:16;25.60;94.80
9699;DHT22;10089;47.876;8.346;2022-07-06T12:15:41;25.70;93.30
9699;DHT22;10089;47.876;8.346;2022-07-06T12:18:07;25.70;93.40
9699;DHT22;10089;47.876;8.346;2022-07-06T12:20:32;25.50;92.90
9699;DHT22;10089;47.876;8.346;2022-07-06T12:23:05;25.80;91.80
9699;DHT22;10089;47.876;8.346;2022-07-06T12:25:31;25.70;92.80
9699;DHT22;10089;47.876;8.346;2022-07-06T12:27:57;26.00;91.80
9699;DHT22;10089;47.876;8.346;2022-07-06T12:30:23;26.00;90.30
9699;DHT22;10089;47.876;8.346;2022-07-06T12:35:33;25.40;88.70
9699;DHT22;10089;47.876;8.346;2022-07-06T12:37:58;25.60;90.90
9699;DHT22;10089;47.876;8.346;2022-07-06T12:40:26;25.50;90.80
9699;DHT22;10089;47.876;8.346;2022-07-06T12:42:55;25.70;90.50
9699;DHT22;10089;47.876;8.346;2022-07-06T12:45:25;25.80;91.20
9699;DHT22;10089;47.876;8.346;2022-07-06T12:47:58;25.60;90.40
9699;DHT22;10089;47.876;8.346;2022-07-06T12:50:34;25.70;90.50
9699;DHT22;10089;47.876;8.346;2022-07-06T12:53:00;25.60;89.00
9699;DHT22;10089;47.876;8.346;2022-07-06T12:55:26;25.70;90.50
9699;DHT22;10089;47.876;8.346;2022-07-06T12:57:52;25.70;90.20
9699;DHT22;10089;47.876;8.346;2022-07-06T13:00:18;25.60;90.90
9699;DHT22;10089;47.876;8.346;2022-07-06T13:02:48;25.60;90.40
9699;DHT22;10089;47.876;8.346;2022-07-06T13:05:21;25.60;90.80
9699;DHT22;10089;47.876;8.346;2022-07-06T13:07:53;25.70;89.50
9699;DHT22;10089;47.876;8.346;2022-07-06T13:10:19;25.60;89.30
9699;DHT22;10089;47.876;8.346;2022-07-06T13:12:45;25.70;90.10
9699;DHT22;10089;47.876;8.346;2022-07-06T13:15:11;25.40;86.60
9699;DHT22;10089;47.876;8.346;2022-07-06T13:17:37;25.30;86.20
9699;DHT22;10089;47.876;8.346;2022-07-06T13:20:03;24.90;85.10
9699;DHT22;10089;47.876;8.346;2022-07-06T13:22:29;25.10;87.20
9699;DHT22;10089;47.876;8.346;2022-07-06T13:24:54;25.20;85.90
9699;DHT22;10089;47.876;8.346;2022-07-06T13:27:21;25.20;83.90
9699;DHT22;10089;47.876;8.346;2022-07-06T13:29:47;25.30;84.40
9699;DHT22;10089;47.876;8.346;2022-07-06T13:32:13;25.40;84.00
9699;DHT22;10089;47.876;8.346;2022-07-06T13:34:38;25.20;84.70
9699;DHT22;10089;47.876;8.346;2022-07-06T13:37:04;25.20;85.70
9699;DHT22;10089;47.876;8.346;2022-07-06T13:39:30;25.00;83.40
9699;DHT22;10089;47.876;8.346;2022-07-06T13:41:56;25.00;83.00
9699;DHT22;10089;47.876;8.346;2022-07-06T13:44:22;25.10;84.50
9699;DHT22;10089;47.876;8.346;2022-07-06T13:46:48;25.00;81.90
9699;DHT22;10089;47.876;8.346;2022-07-06T13:49:14;24.80;81.90
9699;DHT22;10089;47.876;8.346;2022-07-06T13:51:40;24.90;83.10
9699;DHT22;10089;47.876;8.346;2022-07-06T13:54:06;24.60;83.20
9699;DHT22;10089;47.876;8.346;2022-07-06T13:56:32;25.00;82.40
9699;DHT22;10089;47.876;8.346;2022-07-06T13:58:57;24.90;86.70
9699;DHT22;10089;47.876;8.346;2022-07-06T14:01:23;25.10;84.40
9699;DHT22;10089;47.876;8.346;2022-07-06T14:03:49;24.90;80.50
9699;DHT22;10089;47.876;8.346;2022-07-06T14:06:15;24.80;82.50
9699;DHT22;10089;47.876;8.346;2022-07-06T14:08:41;24.80;79.00
9699;DHT22;10089;47.876;8.346;2022-07-06T14:11:08;24.80;81.20
9699;DHT22;10089;47.876;8.346;2022-07-06T14:13:34;25.00;80.80
9699;DHT22;10089;47.876;8.346;2022-07-06T14:16:00;25.00;78.20
9699;DHT22;10089;47.876;8.346;2022-07-06T14:18:26;24.90;78.90
9699;DHT22;10089;47.876;8.346;2022-07-06T14:20:52;24.80;78.30
9699;DHT22;10089;47.876;8.346;2022-07-06T14:23:18;24.40;79.20
9699;DHT22;10089;47.876;8.346;2022-07-06T14:25:45;24.40;79.60
9699;DHT22;10089;47.876;8.346;2022-07-06T14:28:11;24.40;78.30
9699;DHT22;10089;47.876;8.346;2022-07-06T14:30:39;23.90;78.10
9699;DHT22;10089;47.876;8.346;2022-07-06T14:33:05;24.00;80.80
9699;DHT22;10089;47.876;8.346;2022-07-06T14:35:42;24.10;75.40
9699;DHT22;10089;47.876;8.346;2022-07-06T14:38:08;23.90;76.70
9699;DHT22;10089;47.876;8.346;2022-07-06T14:40:34;24.00;78.00
9699;DHT22;10089;47.876;8.346;2022-07-06T14:43:00;24.10;78.40
9699;DHT22;10089;47.876;8.346;2022-07-06T14:45:26;23.30;76.30
9699;DHT22;10089;47.876;8.346;2022-07-06T14:47:52;23.90;76.20
9699;DHT22;10089;47.876;8.346;2022-07-06T14:50:17;23.90;77.50
9699;DHT22;10089;47.876;8.346;2022-07-06T14:52:43;23.80;76.40
9699;DHT22;10089;47.876;8.346;2022-07-06T14:55:09;23.90;76.60
9699;DHT22;10089;47.876;8.346;2022-07-06T14:57:34;23.80;76.60
9699;DHT22;10089;47.876;8.346;2022-07-06T15:00:00;23.90;77.80
9699;DHT22;10089;47.876;8.346;2022-07-06T15:02:26;23.90;78.60
9699;DHT22;10089;47.876;8.346;2022-07-06T15:04:51;23.80;80.10
9699;DHT22;10089;47.876;8.346;2022-07-06T15:07:17;23.90;81.60
9699;DHT22;10089;47.876;8.346;2022-07-06T15:09:43;23.70;80.50
9699;DHT22;10089;47.876;8.346;2022-07-06T15:12:09;23.50;83.70
9699;DHT22;10089;47.876;8.346;2022-07-06T15:14:35;23.30;84.60
9699;DHT22;10089;47.876;8.346;2022-07-06T15:17:00;23.40;84.10
9699;DHT22;10089;47.876;8.346;2022-07-06T15:19:26;23.30;83.20
9699;DHT22;10089;47.876;8.346;2022-07-06T15:21:52;23.40;88.10
9699;DHT22;10089;47.876;8.346;2022-07-06T15:24:18;23.70;88.70
9699;DHT22;10089;47.876;8.346;2022-07-06T15:26:44;23.60;88.50
9699;DHT22;10089;47.876;8.346;2022-07-06T15:29:10;23.50;88.70
9699;DHT22;10089;47.876;8.346;2022-07-06T15:31:35;23.50;88.40
9699;DHT22;10089;47.876;8.346;2022-07-06T15:34:01;23.40;90.10
9699;DHT22;10089;47.876;8.346;2022-07-06T15:36:27;23.20;87.80
9699;DHT22;10089;47.876;8.346;2022-07-06T15:38:52;23.20;89.90
9699;DHT22;10089;47.876;8.346;2022-07-06T15:41:18;23.30;91.40
9699;DHT22;10089;47.876;8.346;2022-07-06T15:43:44;23.10;90.10
9699;DHT22;10089;47.876;8.346;2022-07-06T15:46:10;23.00;90.50
9699;DHT22;10089;47.876;8.346;2022-07-06T15:48:36;22.90;91.70